Time;durP1;ratioP1;P1;durP2;ratioP2;P2;SDS_P1;SDS_P2;PMS_P1;PMS_P2;Temp;Humidity;BMP_temperature;BMP_pressure;BME280_temperature;BME280_humidity;BME280_pressure;Samples;Min_cycle;Max_cycle;Signal;HPM_P1;HPM_P2
2022/04/13 00:00:10;;;;;;;12.07;10.30;;;14.80;84.80;;;;;;6134913;23;20415;-89
2022/04/13 00:02:39;;;;;;;10.87;8.00;;;14.80;85.90;;;;;;6131507;23;20404;-89
2022/04/13 00:05:07;;;;;;;10.73;7.70;;;14.60;85.10;;;;;;6134308;23;20404;-90
2022/04/13 00:07:33;;;;;;;8.73;7.70;;;14.50;85.70;;;;;;6138725;23;20404;-89
2022/04/13 00:10:00;;;;;;;9.87;8.77;;;14.60;85.90;;;;;;6136786;23;20917;-90
2022/04/13 00:12:27;;;;;;;8.83;7.93;;;14.60;86.20;;;;;;6134522;23;20811;-89
2022/04/13 00:14:54;;;;;;;9.67;8.67;;;14.50;85.60;;;;;;6133789;23;20447;-90
2022/04/13 00:17:22;;;;;;;9.03;7.70;;;14.50;85.10;;;;;;6153319;23;20442;-90
2022/04/13 00:19:50;;;;;;;9.53;7.90;;;14.50;85.40;;;;;;6142624;23;20423;-90
2022/04/13 00:22:17;;;;;;;8.73;7.80;;;14.40;85.70;;;;;;6132695;23;20408;-88
2022/04/13 00:24:44;;;;;;;9.10;8.20;;;14.40;85.60;;;;;;6153228;23;20425;-89
2022/04/13 00:27:10;;;;;;;10.20;9.30;;;14.40;86.10;;;;;;6147439;23;20435;-90
2022/04/13 00:29:37;;;;;;;11.33;8.57;;;14.40;85.30;;;;;;6133182;23;20406;-89
2022/04/13 00:32:05;;;;;;;8.00;7.20;;;14.40;84.90;;;;;;6132247;23;20443;-90
2022/04/13 00:34:32;;;;;;;8.17;7.37;;;14.40;84.30;;;;;;6133446;23;20441;-90
2022/04/13 00:37:00;;;;;;;9.10;8.20;;;14.50;84.10;;;;;;6148913;23;20425;-90
2022/04/13 00:39:27;;;;;;;8.60;7.70;;;14.50;84.00;;;;;;6145732;23;20399;-90
2022/04/13 00:41:58;;;;;;;8.77;7.73;;;14.50;84.40;;;;;;6137389;23;20414;-90
2022/04/13 00:44:27;;;;;;;8.83;7.93;;;14.40;84.40;;;;;;6138280;23;20430;-90
2022/04/13 00:46:54;;;;;;;10.13;7.13;;;14.30;84.80;;;;;;6142749;23;20397;-89
2022/04/13 00:49:22;;;;;;;9.90;7.37;;;14.20;85.70;;;;;;6152675;23;20454;-90
2022/04/13 00:51:49;;;;;;;9.73;7.27;;;14.20;85.90;;;;;;6144667;23;20463;-89
2022/04/13 00:54:18;;;;;;;9.20;8.30;;;14.20;86.30;;;;;;6128887;23;20440;-90
2022/04/13 00:56:48;;;;;;;10.93;7.60;;;14.20;86.80;;;;;;6127689;23;20417;-90
2022/04/13 00:59:16;;;;;;;7.60;6.77;;;14.20;87.20;;;;;;6126850;23;20415;-90
2022/04/13 01:01:46;;;;;;;10.87;7.30;;;14.10;87.80;;;;;;6130319;23;20415;-90
2022/04/13 01:04:13;;;;;;;11.83;8.20;;;14.10;88.30;;;;;;6141661;23;20411;-89
2022/04/13 01:06:41;;;;;;;19.90;10.67;;;14.00;88.20;;;;;;6141974;23;20472;-90
2022/04/13 01:09:08;;;;;;;9.93;9.03;;;14.10;88.20;;;;;;6126794;23;20429;-90
2022/04/13 01:11:36;;;;;;;11.23;9.00;;;14.00;87.90;;;;;;6125604;23;20473;-90
2022/04/13 01:14:03;;;;;;;11.40;9.50;;;14.00;88.20;;;;;;6131451;23;20449;-89
2022/04/13 01:16:30;;;;;;;9.23;7.93;;;13.90;88.30;;;;;;6127872;23;20426;-90
2022/04/13 01:18:57;;;;;;;10.33;8.50;;;13.90;88.20;;;;;;6132091;23;20414;-90
2022/04/13 01:21:40;;;;;;;10.93;9.47;;;13.90;88.30;;;;;;6127437;23;20421;-89
2022/04/13 01:24:08;;;;;;;10.13;9.10;;;13.90;88.50;;;;;;6126019;23;20436;-89
2022/04/13 01:26:35;;;;;;;11.63;8.70;;;13.80;88.50;;;;;;6131541;23;20381;-90
2022/04/13 01:29:02;;;;;;;10.73;9.63;;;13.70;89.30;;;;;;6147638;23;20408;-90
2022/04/13 01:31:28;;;;;;;11.57;9.20;;;13.60;89.50;;;;;;6139642;23;20434;-89
2022/04/13 01:33:56;;;;;;;12.30;8.73;;;13.50;90.00;;;;;;6141699;23;20432;-89
2022/04/13 01:36:23;;;;;;;10.00;7.37;;;13.40;90.30;;;;;;6143195;23;20417;-89
2022/04/13 01:38:49;;;;;;;9.17;8.27;;;13.40;90.60;;;;;;6130986;23;20417;-90
2022/04/13 01:41:17;;;;;;;13.60;9.07;;;13.50;90.50;;;;;;6136222;23;20403;-89
2022/04/13 01:43:44;;;;;;;10.30;7.27;;;13.50;90.60;;;;;;6147342;23;20797;-90
2022/04/13 01:46:12;;;;;;;11.07;7.90;;;13.40;90.70;;;;;;6154473;23;20405;-89
2022/04/13 01:48:38;;;;;;;12.00;8.97;;;13.30;91.00;;;;;;6155459;23;20464;-89
2022/04/13 01:51:05;;;;;;;8.33;7.40;;;13.20;91.10;;;;;;6153986;23;20468;-89
2022/04/13 01:53:32;;;;;;;9.63;7.73;;;13.20;91.30;;;;;;6152648;23;20444;-89
2022/04/13 01:55:59;;;;;;;9.27;7.60;;;13.10;91.40;;;;;;6154229;23;20416;-88
2022/04/13 01:58:27;;;;;;;9.63;8.17;;;13.10;91.70;;;;;;6140547;23;20403;-89
2022/04/13 02:00:54;;;;;;;10.60;7.70;;;13.10;91.80;;;;;;6152494;23;20405;-89
2022/04/13 02:03:21;;;;;;;11.10;8.67;;;13.10;91.90;;;;;;6141930;23;20423;-89
2022/04/13 02:05:48;;;;;;;11.63;8.70;;;13.10;92.10;;;;;;6132293;23;20419;-90
2022/04/13 02:08:15;;;;;;;12.23;9.40;;;13.10;92.30;;;;;;6152677;23;20396;-90
2022/04/13 02:10:42;;;;;;;9.80;8.90;;;13.00;92.50;;;;;;6155909;23;20399;-89
2022/04/13 02:13:09;;;;;;;12.27;9.57;;;13.00;92.60;;;;;;6153162;23;20431;-88
2022/04/13 02:15:38;;;;;;;9.20;8.30;;;13.00;92.90;;;;;;6156081;23;20396;-89
2022/04/13 02:18:05;;;;;;;9.17;8.07;;;12.90;92.90;;;;;;6155875;23;20409;-88
2022/04/13 02:20:32;;;;;;;10.13;8.10;;;12.80;93.00;;;;;;6140852;23;20412;-90
2022/04/13 02:23:01;;;;;;;9.13;7.83;;;12.70;93.40;;;;;;6148952;23;20418;-88
2022/04/13 02:25:28;;;;;;;12.07;9.20;;;12.60;93.70;;;;;;6155071;23;20389;-89
2022/04/13 02:27:55;;;;;;;11.23;9.20;;;12.70;94.00;;;;;;6155193;23;20455;-87
2022/04/13 02:30:22;;;;;;;12.73;8.43;;;12.70;94.10;;;;;;6154885;23;20392;-89
2022/04/13 02:32:50;;;;;;;10.13;8.10;;;12.70;93.90;;;;;;6155782;23;20447;-87
2022/04/13 02:35:17;;;;;;;12.37;8.80;;;12.70;93.80;;;;;;6155282;23;20392;-89
2022/04/13 02:37:44;;;;;;;12.30;8.57;;;12.70;93.90;;;;;;6147630;23;20409;-89
2022/04/13 02:40:12;;;;;;;12.60;8.77;;;12.70;94.00;;;;;;6134166;23;20421;-89
2022/04/13 02:42:39;;;;;;;12.07;7.53;;;12.70;94.00;;;;;;6132015;23;20408;-89
2022/04/13 02:45:06;;;;;;;9.13;7.90;;;12.70;93.90;;;;;;6133280;23;20438;-89
2022/04/13 02:47:33;;;;;;;9.67;8.53;;;12.70;93.90;;;;;;6131211;23;20416;-89
2022/04/13 02:50:02;;;;;;;13.67;10.07;;;12.70;93.70;;;;;;6148832;23;20421;-89
2022/04/13 02:52:29;;;;;;;11.03;8.50;;;12.70;93.90;;;;;;6141203;23;20448;-89
2022/04/13 02:54:56;;;;;;;10.93;8.90;;;12.60;94.00;;;;;;6131400;23;20435;-89
2022/04/13 02:57:23;;;;;;;11.27;8.33;;;12.50;94.20;;;;;;6129879;23;20407;-89
2022/04/13 02:59:50;;;;;;;13.90;10.50;;;12.40;94.60;;;;;;6132039;23;20431;-89
2022/04/13 03:02:18;;;;;;;12.77;10.30;;;12.30;94.80;;;;;;6151008;23;20397;-88
2022/04/13 03:04:46;;;;;;;17.20;11.37;;;12.20;95.20;;;;;;6155020;23;20485;-87
2022/04/13 03:07:17;;;;;;;16.87;10.70;;;12.20;95.60;;;;;;6154406;23;20404;-89
2022/04/13 03:09:44;;;;;;;12.93;10.10;;;12.20;95.80;;;;;;6139844;23;20403;-89
2022/04/13 03:12:11;;;;;;;11.13;9.87;;;12.20;95.90;;;;;;6128061;23;20408;-89
2022/04/13 03:14:40;;;;;;;10.67;9.40;;;12.30;96.00;;;;;;6128502;23;20813;-88
2022/04/13 03:17:07;;;;;;;17.83;9.67;;;12.20;96.20;;;;;;6129801;23;20729;-89
2022/04/13 03:19:34;;;;;;;10.67;9.27;;;12.20;95.90;;;;;;6128443;23;20902;-89
2022/04/13 03:22:01;;;;;;;10.87;7.67;;;12.30;95.70;;;;;;6128583;23;20411;-90
2022/04/13 03:24:29;;;;;;;12.07;9.30;;;12.30;95.70;;;;;;6153512;23;20491;-88
2022/04/13 03:26:57;;;;;;;11.30;8.43;;;12.20;95.80;;;;;;6150603;23;20396;-89
2022/04/13 03:29:23;;;;;;;11.10;9.10;;;12.20;96.00;;;;;;6139169;23;20423;-87
2022/04/13 03:31:50;;;;;;;12.30;9.30;;;12.10;96.20;;;;;;6153187;23;20387;-89
2022/04/13 03:34:20;;;;;;;11.67;9.27;;;12.10;96.40;;;;;;6143691;23;20452;-89
2022/04/13 03:36:47;;;;;;;10.80;8.33;;;12.00;96.70;;;;;;6132080;23;20412;-89
2022/04/13 03:39:14;;;;;;;11.83;8.70;;;11.90;96.90;;;;;;6134413;23;20411;-89
2022/04/13 03:41:43;;;;;;;13.20;9.27;;;11.90;97.10;;;;;;6128559;23;20408;-87
2022/04/13 03:44:10;;;;;;;11.17;9.37;;;11.90;97.30;;;;;;6128426;23;20430;-89
2022/04/13 03:46:37;;;;;;;12.27;9.57;;;12.00;97.10;;;;;;6128844;23;20422;-89
2022/04/13 03:49:04;;;;;;;15.97;9.53;;;11.90;97.00;;;;;;6128048;23;20407;-89
2022/04/13 03:51:31;;;;;;;13.63;9.43;;;11.90;96.90;;;;;;6126950;23;20416;-88
2022/04/13 03:53:58;;;;;;;10.70;7.90;;;11.90;97.10;;;;;;6127769;23;20452;-89
2022/04/13 03:56:24;;;;;;;13.70;8.20;;;11.80;97.10;;;;;;6132449;23;20435;-88
2022/04/13 03:58:52;;;;;;;13.80;8.03;;;11.70;97.20;;;;;;6154708;23;20422;-88
2022/04/13 04:01:21;;;;;;;9.67;8.40;;;11.80;97.60;;;;;;6152455;23;20483;-89
2022/04/13 04:03:48;;;;;;;19.40;9.20;;;11.80;97.20;;;;;;6145258;23;20431;-89
2022/04/13 04:06:15;;;;;;;11.93;8.40;;;11.80;97.30;;;;;;6149672;23;20459;-89
2022/04/13 04:08:41;;;;;;;10.70;7.53;;;11.80;97.20;;;;;;6135758;23;20396;-89
2022/04/13 04:11:08;;;;;;;12.73;7.23;;;11.70;97.20;;;;;;6149007;23;20414;-88
2022/04/13 04:13:35;;;;;;;10.50;7.93;;;11.60;97.40;;;;;;6136174;23;20773;-84
2022/04/13 04:16:03;;;;;;;10.50;7.30;;;11.50;97.50;;;;;;6158417;23;20928;-82
2022/04/13 04:18:30;;;;;;;13.23;6.90;;;11.50;97.40;;;;;;6157688;23;20402;-83
2022/04/13 04:20:57;;;;;;;8.53;6.80;;;11.50;97.40;;;;;;6158551;23;20408;-84
2022/04/13 04:23:24;;;;;;;9.23;6.60;;;11.50;97.20;;;;;;6170715;23;20415;-84
2022/04/13 04:25:51;;;;;;;9.13;7.10;;;11.50;97.00;;;;;;6148062;23;20400;-84
2022/04/13 04:28:19;;;;;;;11.90;6.30;;;11.40;97.10;;;;;;6145147;23;20483;-82
2022/04/13 04:30:46;;;;;;;9.50;8.50;;;11.50;97.40;;;;;;6138292;23;20407;-84
2022/04/13 04:33:16;;;;;;;10.60;7.57;;;11.50;97.50;;;;;;6129883;23;20465;-84
2022/04/13 04:35:46;;;;;;;12.73;7.73;;;11.50;97.50;;;;;;6133358;23;20418;-83
2022/04/13 04:38:13;;;;;;;10.30;7.93;;;11.50;97.80;;;;;;6148245;23;20421;-82
2022/04/13 04:40:40;;;;;;;8.73;7.20;;;11.50;98.30;;;;;;6137492;23;20475;-83
2022/04/13 04:43:07;;;;;;;8.93;8.03;;;11.50;98.30;;;;;;6132685;23;20411;-84
2022/04/13 04:45:33;;;;;;;12.43;8.10;;;11.50;98.30;;;;;;6138799;23;20408;-84
2022/04/13 04:48:04;;;;;;;9.03;7.10;;;11.50;98.40;;;;;;6152934;23;20389;-84
2022/04/13 04:50:33;;;;;;;11.90;8.00;;;11.50;98.00;;;;;;6140142;23;20406;-83
2022/04/13 04:53:00;;;;;;;9.70;6.10;;;11.50;97.70;;;;;;6130747;23;20457;-84
2022/04/13 04:55:26;;;;;;;9.60;8.60;;;11.50;97.60;;;;;;6129221;23;20946;-83
2022/04/13 04:57:53;;;;;;;12.87;8.63;;;11.60;97.70;;;;;;6132801;23;20407;-84
2022/04/13 05:00:21;;;;;;;11.57;9.57;;;11.60;98.10;;;;;;6140898;23;20421;-83
2022/04/13 05:02:48;;;;;;;17.40;9.27;;;11.60;98.00;;;;;;6135449;23;20721;-84
2022/04/13 05:05:15;;;;;;;14.40;8.70;;;11.70;97.80;;;;;;6141781;23;20461;-84
2022/04/13 05:07:43;;;;;;;12.40;10.13;;;11.80;97.60;;;;;;6138878;23;20744;-83
2022/04/13 05:10:11;;;;;;;10.50;9.47;;;11.80;97.50;;;;;;6132586;23;20416;-85
2022/04/13 05:12:45;;;;;;;11.83;9.30;;;11.90;97.70;;;;;;6129321;23;20396;-84
2022/04/13 05:15:13;;;;;;;12.83;9.23;;;11.90;97.40;;;;;;6138853;23;20546;-83
2022/04/13 05:17:40;;;;;;;11.80;9.33;;;11.90;97.30;;;;;;6149990;23;20411;-84
2022/04/13 05:20:08;;;;;;;13.67;8.50;;;12.00;97.10;;;;;;6142606;23;20414;-85
2022/04/13 05:22:35;;;;;;;11.47;8.37;;;12.10;97.10;;;;;;6132156;23;20411;-86
2022/04/13 05:25:05;;;;;;;11.17;8.07;;;12.20;96.80;;;;;;6138800;23;20425;-87
2022/04/13 05:27:32;;;;;;;14.97;9.33;;;12.20;96.70;;;;;;6111785;23;20461;-87
2022/04/13 05:29:59;;;;;;;10.13;8.20;;;12.20;96.70;;;;;;6103370;23;20958;-87
2022/04/13 05:32:26;;;;;;;12.10;8.63;;;12.30;96.70;;;;;;6102028;23;20414;-87
2022/04/13 05:34:59;;;;;;;10.07;9.07;;;12.40;96.50;;;;;;6109414;23;20467;-86
2022/04/13 05:37:25;;;;;;;14.40;9.20;;;12.50;96.50;;;;;;6111330;23;20472;-87
2022/04/13 05:39:52;;;;;;;15.33;9.70;;;12.50;96.50;;;;;;6110351;23;20409;-86
2022/04/13 05:42:23;;;;;;;13.17;9.20;;;12.50;96.60;;;;;;6111305;23;20407;-85
2022/04/13 05:44:50;;;;;;;16.77;8.77;;;12.50;96.70;;;;;;6123173;23;20465;-86
2022/04/13 05:47:17;;;;;;;12.70;8.30;;;12.50;96.60;;;;;;6123881;23;20411;-86
2022/04/13 05:49:44;;;;;;;10.10;7.50;;;12.50;96.70;;;;;;6118788;23;20413;-86
2022/04/13 05:52:11;;;;;;;14.90;10.10;;;12.70;96.60;;;;;;6107435;23;20416;-85
2022/04/13 05:54:37;;;;;;;9.27;8.20;;;12.70;96.60;;;;;;6101274;23;20523;-86
2022/04/13 05:57:06;;;;;;;9.53;7.93;;;12.80;96.40;;;;;;6103210;23;20415;-87
2022/04/13 05:59:34;;;;;;;9.60;7.77;;;12.90;96.30;;;;;;6104249;23;20404;-86
2022/04/13 06:02:00;;;;;;;12.70;8.97;;;13.00;96.20;;;;;;6105198;23;20412;-86
2022/04/13 06:04:27;;;;;;;12.90;8.47;;;13.10;95.80;;;;;;6108108;23;20491;-86
2022/04/13 06:06:55;;;;;;;11.70;8.50;;;13.20;95.70;;;;;;6115423;23;20414;-86
2022/04/13 06:09:22;;;;;;;15.00;8.87;;;13.30;95.50;;;;;;6113835;23;20893;-86
2022/04/13 06:11:49;;;;;;;9.37;8.20;;;13.50;95.50;;;;;;6110420;23;20413;-86
2022/04/13 06:14:16;;;;;;;10.10;8.30;;;13.60;95.20;;;;;;6109600;23;20449;-88
2022/04/13 06:16:44;;;;;;;9.17;8.27;;;13.70;95.00;;;;;;6110598;23;20440;-88
2022/04/13 06:19:11;;;;;;;8.97;7.63;;;13.80;94.80;;;;;;6111493;23;20417;-87
2022/04/13 06:21:38;;;;;;;11.43;7.87;;;14.00;94.30;;;;;;6113448;23;20912;-85
2022/04/13 06:24:06;;;;;;;9.77;8.77;;;14.20;94.10;;;;;;6111882;23;20426;-87
2022/04/13 06:26:33;;;;;;;14.70;8.93;;;14.50;93.50;;;;;;6111202;23;20409;-86
2022/04/13 06:28:59;;;;;;;12.60;8.07;;;14.90;93.10;;;;;;6109684;23;20401;-87
2022/04/13 06:31:27;;;;;;;10.03;7.90;;;15.20;92.30;;;;;;6111217;23;20408;-85
2022/04/13 06:33:55;;;;;;;11.53;8.90;;;15.30;91.50;;;;;;6109710;23;20443;-86
2022/04/13 06:36:22;;;;;;;10.83;8.87;;;15.60;91.20;;;;;;6109980;23;20414;-86
2022/04/13 06:38:48;;;;;;;10.40;8.50;;;15.80;90.50;;;;;;6113041;23;20404;-85
2022/04/13 06:41:15;;;;;;;12.60;9.63;;;16.00;90.00;;;;;;6111713;23;20408;-86
2022/04/13 06:43:42;;;;;;;10.07;8.87;;;16.20;89.30;;;;;;6110084;23;20430;-86
2022/04/13 06:46:09;;;;;;;12.80;9.60;;;16.40;88.40;;;;;;6120054;23;20433;-86
2022/04/13 06:48:38;;;;;;;13.70;9.10;;;16.60;87.60;;;;;;6125510;23;20401;-88
2022/04/13 06:51:07;;;;;;;11.77;8.83;;;16.50;86.50;;;;;;6125884;23;20404;-88
2022/04/13 06:53:33;;;;;;;10.13;8.30;;;16.40;86.50;;;;;;6124492;23;20452;-88
2022/04/13 06:56:02;;;;;;;7.90;7.10;;;16.50;85.80;;;;;;6119127;23;20412;-86
2022/04/13 06:58:28;;;;;;;8.10;7.30;;;16.70;85.60;;;;;;6112275;23;20408;-85
2022/04/13 07:00:57;;;;;;;14.10;8.00;;;16.90;84.60;;;;;;6112890;23;20398;-86
2022/04/13 07:03:23;;;;;;;8.50;7.70;;;17.20;83.20;;;;;;6109823;23;20452;-87
2022/04/13 07:05:51;;;;;;;16.30;9.43;;;17.30;82.20;;;;;;6108718;23;20420;-87
2022/04/13 07:08:19;;;;;;;10.07;8.10;;;17.40;81.70;;;;;;6107575;23;20460;-87
2022/04/13 07:10:47;;;;;;;8.03;7.20;;;17.60;81.50;;;;;;6107796;23;20894;-86
2022/04/13 07:13:14;;;;;;;13.10;8.03;;;17.70;80.30;;;;;;6114741;23;20483;-87
2022/04/13 07:15:41;;;;;;;8.53;7.20;;;17.90;79.80;;;;;;6111696;23;20393;-85
2022/04/13 07:18:09;;;;;;;12.20;7.47;;;18.10;78.90;;;;;;6107085;23;20408;-85
2022/04/13 07:20:35;;;;;;;9.70;7.57;;;18.20;78.50;;;;;;6102887;23;20452;-85
2022/04/13 07:23:02;;;;;;;13.43;7.73;;;18.50;77.40;;;;;;6104327;23;20906;-86
2022/04/13 07:25:30;;;;;;;8.70;7.90;;;18.70;76.60;;;;;;6109943;23;20444;-85
2022/04/13 07:28:05;;;;;;;9.60;7.23;;;19.00;75.30;;;;;;6113718;23;20406;-85
2022/04/13 07:30:32;;;;;;;8.60;7.80;;;19.50;73.90;;;;;;6119968;23;20434;-85
2022/04/13 07:33:01;;;;;;;10.70;7.10;;;19.70;72.90;;;;;;6115115;23;20414;-85
2022/04/13 07:35:28;;;;;;;8.20;7.50;;;19.80;71.80;;;;;;6123926;23;20470;-86
2022/04/13 07:37:55;;;;;;;8.20;7.43;;;19.90;71.40;;;;;;6116817;23;20414;-86
2022/04/13 07:40:22;;;;;;;8.23;7.43;;;20.60;70.00;;;;;;6107284;23;20476;-86
2022/04/13 07:42:50;;;;;;;10.37;7.57;;;21.00;68.50;;;;;;6108414;23;20412;-86
2022/04/13 07:45:17;;;;;;;9.53;7.23;;;20.60;67.60;;;;;;6109351;23;20911;-86
2022/04/13 07:47:44;;;;;;;7.90;7.10;;;20.60;68.40;;;;;;6107958;23;20499;-85
2022/04/13 07:50:12;;;;;;;8.60;7.70;;;20.90;67.50;;;;;;6107580;23;20926;-85
2022/04/13 07:52:39;;;;;;;8.60;7.70;;;21.10;66.70;;;;;;6103399;23;20409;-85
2022/04/13 07:55:09;;;;;;;12.53;7.63;;;21.50;65.10;;;;;;6104153;23;20453;-81
2022/04/13 07:57:36;;;;;;;7.13;6.40;;;21.40;64.90;;;;;;6113016;23;20419;-80
2022/04/13 08:00:06;;;;;;;10.93;6.93;;;21.10;65.00;;;;;;6111967;23;20496;-81
2022/04/13 08:02:34;;;;;;;7.30;6.20;;;21.10;64.30;;;;;;6102514;23;20421;-81
2022/04/13 08:05:01;;;;;;;8.87;6.73;;;21.00;65.10;;;;;;6104088;23;20421;-81
2022/04/13 08:07:27;;;;;;;13.60;7.17;;;21.20;66.00;;;;;;6103560;23;20397;-81
2022/04/13 08:09:54;;;;;;;8.50;7.50;;;21.30;64.90;;;;;;6104582;23;20413;-81
2022/04/13 08:12:21;;;;;;;11.17;6.93;;;21.20;64.20;;;;;;6105127;23;20404;-81
2022/04/13 08:14:49;;;;;;;7.47;6.10;;;21.50;64.90;;;;;;6104264;23;20449;-81
2022/04/13 08:17:17;;;;;;;12.47;6.13;;;22.20;62.50;;;;;;6104647;23;20425;-81
2022/04/13 08:19:44;;;;;;;9.70;6.97;;;22.90;60.60;;;;;;6102179;23;20920;-81
2022/04/13 08:22:11;;;;;;;8.10;7.30;;;23.40;59.40;;;;;;6101888;23;20442;-81
2022/04/13 08:24:37;;;;;;;6.87;6.27;;;22.80;59.20;;;;;;6101991;23;20434;-81
2022/04/13 08:27:06;;;;;;;10.30;6.80;;;23.30;59.70;;;;;;6103662;23;20907;-86
2022/04/13 08:29:33;;;;;;;9.40;7.83;;;23.70;57.70;;;;;;6106410;23;20419;-85
2022/04/13 08:32:00;;;;;;;8.73;6.70;;;24.70;56.80;;;;;;6107969;23;20888;-86
2022/04/13 08:34:28;;;;;;;7.37;6.67;;;25.80;55.00;;;;;;6106543;23;20455;-85
2022/04/13 08:36:55;;;;;;;8.77;6.47;;;26.80;52.90;;;;;;6101903;23;20412;-86
2022/04/13 08:39:21;;;;;;;10.63;6.90;;;27.40;51.60;;;;;;6104592;23;20720;-86
2022/04/13 08:41:51;;;;;;;9.97;6.83;;;27.70;49.70;;;;;;6106737;23;20423;-85
2022/04/13 08:44:22;;;;;;;6.00;5.40;;;27.50;49.70;;;;;;6107514;23;20424;-86
2022/04/13 08:46:55;;;;;;;9.80;5.73;;;27.70;49.10;;;;;;6108394;23;20416;-86
2022/04/13 08:49:22;;;;;;;5.60;5.10;;;27.60;48.60;;;;;;6109271;23;20424;-85
2022/04/13 08:51:54;;;;;;;9.20;6.70;;;26.90;47.80;;;;;;6115194;23;20457;-86
2022/04/13 08:54:28;;;;;;;7.67;4.93;;;26.00;49.80;;;;;;6123702;23;20497;-86
2022/04/13 08:56:56;;;;;;;8.27;5.50;;;26.40;49.30;;;;;;6111533;23;20491;-86
2022/04/13 08:59:30;;;;;;;5.83;5.00;;;27.60;48.70;;;;;;6109949;23;20418;-86
2022/04/13 09:02:04;;;;;;;6.03;4.80;;;28.50;46.20;;;;;;6108898;23;20943;-86
2022/04/13 09:04:36;;;;;;;7.20;4.33;;;29.20;44.10;;;;;;6113013;23;20419;-86
2022/04/13 09:07:06;;;;;;;5.37;4.87;;;30.20;44.00;;;;;;6115717;23;20428;-87
2022/04/13 09:09:40;;;;;;;7.07;5.47;;;30.70;42.60;;;;;;6108319;23;20440;-86
2022/04/13 09:12:08;;;;;;;6.43;4.30;;;30.90;42.00;;;;;;6107556;23;20388;-84
2022/04/13 09:14:38;;;;;;;6.03;5.33;;;31.40;41.00;;;;;;6101767;23;20440;-85
2022/04/13 09:17:05;;;;;;;5.50;4.67;;;31.90;40.20;;;;;;6106365;23;20435;-86
2022/04/13 09:19:33;;;;;;;6.17;4.80;;;32.40;38.90;;;;;;6104989;23;20408;-85
2022/04/13 09:22:00;;;;;;;9.17;4.23;;;33.20;37.50;;;;;;6102771;23;20408;-85
2022/04/13 09:24:29;;;;;;;6.57;4.07;;;33.60;36.80;;;;;;6108650;23;20409;-85
2022/04/13 09:26:56;;;;;;;5.03;3.33;;;33.90;35.50;;;;;;6124731;23;20449;-87
2022/04/13 09:29:23;;;;;;;6.73;4.00;;;33.90;34.60;;;;;;6106935;23;20405;-85
2022/04/13 09:31:50;;;;;;;4.60;3.60;;;33.80;34.90;;;;;;6099238;23;20415;-85
2022/04/13 09:34:16;;;;;;;5.90;3.63;;;34.00;35.00;;;;;;6100647;23;20419;-85
2022/04/13 09:36:44;;;;;;;5.90;3.50;;;34.10;34.40;;;;;;6100885;23;20467;-86
2022/04/13 09:39:11;;;;;;;3.83;3.20;;;34.50;34.20;;;;;;6101177;23;20389;-86
2022/04/13 09:41:40;;;;;;;3.83;3.10;;;34.70;33.60;;;;;;6099693;23;20448;-86
2022/04/13 09:44:14;;;;;;;9.20;3.70;;;35.10;33.40;;;;;;6106467;23;20424;-86
2022/04/13 09:46:41;;;;;;;3.37;3.00;;;34.70;33.20;;;;;;6101854;23;20867;-86
2022/04/13 09:49:09;;;;;;;3.90;3.17;;;34.80;32.70;;;;;;6101365;23;20476;-86
2022/04/13 09:51:37;;;;;;;7.20;2.70;;;34.80;32.60;;;;;;6099669;23;20409;-86
2022/04/13 09:54:07;;;;;;;4.53;3.40;;;34.70;33.00;;;;;;6100114;23;20428;-85
2022/04/13 09:56:34;;;;;;;3.90;3.10;;;34.50;32.90;;;;;;6100049;23;20451;-86
2022/04/13 09:59:04;;;;;;;3.90;3.17;;;34.30;32.90;;;;;;6101478;23;20749;-86
2022/04/13 10:01:33;;;;;;;7.67;3.80;;;34.10;33.10;;;;;;6119017;23;20475;-86
2022/04/13 10:04:00;;;;;;;6.20;3.87;;;34.70;32.50;;;;;;6105577;23;20436;-86
2022/04/13 10:06:28;;;;;;;6.13;3.30;;;35.20;31.90;;;;;;6110867;23;20444;-86
2022/04/13 10:09:05;;;;;;;4.23;3.33;;;35.00;31.40;;;;;;6108044;23;20409;-85
2022/04/13 10:11:32;;;;;;;4.70;3.37;;;35.30;30.30;;;;;;6112245;23;20400;-86
2022/04/13 10:14:03;;;;;;;4.93;2.90;;;34.70;30.20;;;;;;6104208;23;20463;-79
2022/04/13 10:16:33;;;;;;;4.80;2.80;;;34.70;31.30;;;;;;6131498;23;20380;-80
2022/04/13 10:19:01;;;;;;;4.07;3.00;;;35.20;29.90;;;;;;6129613;23;20388;-79
2022/04/13 10:21:40;;;;;;;4.57;3.10;;;35.70;28.60;;;;;;6130005;23;20409;-80
2022/04/13 10:24:11;;;;;;;3.43;3.03;;;36.10;28.80;;;;;;6124542;23;20424;-80
2022/04/13 10:26:39;;;;;;;5.00;3.17;;;36.00;28.50;;;;;;6108990;23;20392;-79
2022/04/13 10:29:16;;;;;;;6.67;3.00;;;35.70;28.80;;;;;;6115670;23;20413;-79
2022/04/13 10:32:02;;;;;;;8.17;3.00;;;36.40;28.90;;;;;;6105977;23;20392;-81
2022/04/13 10:34:30;;;;;;;10.27;4.00;;;36.00;28.40;;;;;;6105735;23;20436;-85
2022/04/13 10:36:57;;;;;;;6.03;4.03;;;35.20;29.30;;;;;;6105437;23;20405;-82
2022/04/13 10:39:23;;;;;;;7.53;3.70;;;35.70;29.70;;;;;;6102317;23;20418;-80
2022/04/13 10:41:50;;;;;;;5.63;3.27;;;34.90;29.50;;;;;;6102924;23;20443;-82
2022/04/13 10:44:23;;;;;;;5.00;4.07;;;34.90;30.10;;;;;;6100879;23;20432;-81
2022/04/13 10:46:53;;;;;;;6.20;3.63;;;35.30;30.00;;;;;;6101496;23;20393;-82
2022/04/13 10:49:24;;;;;;;4.50;3.20;;;36.00;30.00;;;;;;6102283;23;20405;-82
2022/04/13 10:51:56;;;;;;;7.90;4.53;;;37.00;29.00;;;;;;6101032;23;20404;-80
2022/04/13 10:54:27;;;;;;;7.37;3.90;;;37.50;28.50;;;;;;6100208;23;20452;-80
2022/04/13 10:56:56;;;;;;;5.83;3.80;;;38.10;28.20;;;;;;6105443;23;20448;-81
2022/04/13 10:59:32;;;;;;;4.30;3.00;;;38.40;28.20;;;;;;6101368;23;20421;-82
2022/04/13 11:02:00;;;;;;;6.93;4.10;;;37.80;28.20;;;;;;6110717;23;20393;-81
2022/04/13 11:04:28;;;;;;;4.87;3.33;;;37.20;28.80;;;;;;6105157;23;20432;-82
2022/04/13 11:06:56;;;;;;;5.37;3.20;;;37.20;29.10;;;;;;6115044;23;20413;-81
2022/04/13 11:09:28;;;;;;;4.97;3.13;;;37.20;28.50;;;;;;6100929;23;20463;-81
2022/04/13 11:11:57;;;;;;;3.60;2.50;;;37.10;28.80;;;;;;6100456;23;20404;-82
2022/04/13 11:14:27;;;;;;;5.20;3.27;;;37.90;28.20;;;;;;6100241;23;20447;-81
2022/04/13 11:17:23;;;;;;;5.80;3.33;;;38.30;27.90;;;;;;6099289;23;20864;-81
2022/04/13 11:19:50;;;;;;;4.30;3.30;;;38.00;27.40;;;;;;6100494;23;20401;-82
2022/04/13 11:22:17;;;;;;;3.83;3.37;;;38.00;27.80;;;;;;6099966;23;20408;-82
2022/04/13 11:24:56;;;;;;;3.80;2.67;;;37.40;27.80;;;;;;6100279;23;20748;-80
2022/04/13 11:27:25;;;;;;;5.20;4.03;;;36.90;27.60;;;;;;6100088;23;20797;-81
2022/04/13 11:30:01;;;;;;;5.20;3.30;;;36.30;28.40;;;;;;6098452;23;20454;-82
2022/04/13 11:32:31;;;;;;;5.43;3.60;;;36.50;28.70;;;;;;6099461;23;20388;-83
2022/04/13 11:35:02;;;;;;;5.17;2.97;;;36.70;28.10;;;;;;6098220;23;20448;-82
2022/04/13 11:37:44;;;;;;;5.10;3.00;;;37.10;28.00;;;;;;6100514;23;20416;-82
2022/04/13 11:40:12;;;;;;;6.47;4.10;;;37.40;28.20;;;;;;6100053;23;20389;-82
2022/04/13 11:42:53;;;;;;;4.20;2.77;;;37.40;27.80;;;;;;6100751;23;20452;-82
2022/04/13 11:45:23;;;;;;;5.30;2.40;;;38.60;27.00;;;;;;6102581;23;20428;-83
2022/04/13 11:47:58;;;;;;;3.40;2.70;;;39.40;26.20;;;;;;6104156;23;20409;-81
2022/04/13 11:50:26;;;;;;;5.00;2.97;;;39.60;26.10;;;;;;6112375;23;20396;-79
2022/04/13 11:52:54;;;;;;;3.00;2.70;;;39.80;25.70;;;;;;6103737;23;20799;-81
2022/04/13 11:55:23;;;;;;;5.63;3.00;;;39.90;25.90;;;;;;6103033;23;20935;-83
2022/04/13 11:58:01;;;;;;;5.30;3.03;;;39.00;26.20;;;;;;6102170;23;20436;-81
2022/04/13 12:00:39;;;;;;;4.13;2.70;;;38.80;26.50;;;;;;6107725;23;20392;-82
2022/04/13 12:03:07;;;;;;;2.80;2.50;;;38.40;27.30;;;;;;6107639;23;20404;-83
2022/04/13 12:05:36;;;;;;;4.70;2.50;;;39.10;27.10;;;;;;6105355;23;20500;-80
2022/04/13 12:08:10;;;;;;;4.73;2.90;;;37.80;26.80;;;;;;6100898;23;20799;-81
2022/04/13 12:10:37;;;;;;;5.13;2.80;;;36.70;27.50;;;;;;6109782;23;20424;-81
2022/04/13 12:13:04;;;;;;;5.70;2.80;;;36.20;27.80;;;;;;6112836;23;20433;-83
2022/04/13 12:15:43;;;;;;;3.60;2.73;;;36.40;28.00;;;;;;6103355;23;20448;-82
2022/04/13 12:18:11;;;;;;;6.93;3.03;;;36.80;27.90;;;;;;6101154;23;20396;-82
2022/04/13 12:20:38;;;;;;;3.63;2.40;;;36.90;27.40;;;;;;6106278;23;20405;-82
2022/04/13 12:23:25;;;;;;;5.47;3.13;;;37.30;27.20;;;;;;6102796;23;20404;-81
2022/04/13 12:25:54;;;;;;;5.47;4.10;;;37.40;26.90;;;;;;6103962;23;20424;-82
2022/04/13 12:28:22;;;;;;;4.70;3.10;;;37.40;27.20;;;;;;6118466;23;20388;-81
2022/04/13 12:30:58;;;;;;;8.03;3.17;;;36.60;27.80;;;;;;6122347;23;20420;-80
2022/04/13 12:33:26;;;;;;;3.03;2.70;;;36.40;28.00;;;;;;6122249;23;20397;-80
2022/04/13 12:35:55;;;;;;;3.60;2.80;;;37.00;28.40;;;;;;6112543;23;20440;-81
2022/04/13 12:38:27;;;;;;;8.00;3.67;;;36.90;27.60;;;;;;6111961;23;20460;-81
2022/04/13 12:41:09;;;;;;;5.03;2.70;;;37.40;27.40;;;;;;6114672;23;20440;-81
2022/04/13 12:43:37;;;;;;;5.00;3.23;;;37.40;27.80;;;;;;6114586;23;20396;-82
2022/04/13 12:46:26;;;;;;;6.73;3.10;;;37.80;27.50;;;;;;6104570;23;20405;-82
2022/04/13 12:48:56;;;;;;;3.50;3.10;;;38.30;27.30;;;;;;6097272;23;20420;-81